Skovorodino, Russia
Current Conditions -  °F | °C
As of 5:00 PM on Tuesday 27 Jan 2015 (Local Time) from UHBB Reporting Station
Clear Clear  
Wind Chill: -11°   Ceiling: Unl
Heat Index:   Visibility: 6mi
Dew Point: -13°   Wind: 7mph
Humidity: 51%   Direction: 360°N
Pressure: 30.27"   Gusts: NA
Location:  53.98°N, 123.92°E
Report Text: UHBB 270800Z 36003MPS CAVOK M17/M25 Q1025 NOSIG RMK QFE751/100236410260
Loading
Personal Weather Stations






























Interactive Weather Map New forecast layout! Learn more

10-Day Weather Forecast

Advertisements
Track Severe Weather on mobile